createdAt,value
2022-12-17T00:00:49.307Z,7.07
2022-12-17T00:04:26.767Z,7.70
2022-12-17T00:08:16.280Z,7.77
2022-12-17T00:11:57.165Z,6.93
2022-12-17T00:15:38.419Z,6.80
2022-12-17T00:19:20.683Z,6.90
2022-12-17T00:23:01.879Z,6.40
2022-12-17T00:26:43.451Z,6.50
2022-12-17T00:30:26.016Z,6.93
2022-12-17T00:34:09.447Z,6.17
2022-12-17T00:37:57.234Z,6.23
2022-12-17T00:41:38.271Z,6.57
2022-12-17T00:45:19.422Z,6.47
2022-12-17T00:49:09.636Z,6.90
2022-12-17T00:52:50.741Z,6.13
2022-12-17T00:56:33.147Z,6.60
2022-12-17T01:00:14.052Z,7.20
2022-12-17T01:03:54.904Z,6.30
2022-12-17T01:07:38.827Z,6.53
2022-12-17T01:11:20.768Z,6.10
2022-12-17T01:15:03.294Z,6.13
2022-12-17T01:18:44.553Z,6.30
2022-12-17T01:22:25.837Z,5.87
2022-12-17T01:26:12.249Z,7.13
2022-12-17T01:29:54.101Z,6.03
2022-12-17T01:33:37.100Z,5.60
2022-12-17T01:37:18.249Z,6.77
2022-12-17T01:40:59.396Z,6.30
2022-12-17T01:45:07.471Z,6.23
2022-12-17T01:48:56.855Z,5.37
2022-12-17T01:52:38.054Z,6.37
2022-12-17T01:56:19.251Z,5.70
2022-12-17T02:00:06.238Z,5.87
2022-12-17T02:03:56.134Z,6.60
2022-12-17T02:07:56.078Z,5.57
2022-12-17T02:11:47.160Z,5.70
2022-12-17T02:15:37.387Z,5.90
2022-12-17T02:19:36.483Z,6.37
2022-12-17T02:23:37.089Z,5.07
2022-12-17T02:27:25.961Z,5.57
2022-12-17T02:31:15.610Z,5.77
2022-12-17T02:35:04.452Z,6.33
2022-12-17T02:38:49.497Z,6.90
2022-12-17T02:42:33.749Z,5.57
2022-12-17T02:46:15.816Z,6.43
2022-12-17T02:49:57.342Z,6.40
2022-12-17T02:53:39.127Z,7.23
2022-12-17T02:57:20.276Z,6.90
2022-12-17T03:01:03.285Z,6.90
2022-12-17T03:04:44.538Z,7.17
2022-12-17T03:08:25.770Z,7.37
2022-12-17T03:12:06.945Z,6.97
2022-12-17T03:15:47.811Z,6.90
2022-12-17T03:19:30.559Z,7.87
2022-12-17T03:23:11.618Z,8.13
2022-12-17T03:26:48.934Z,7.10
2022-12-17T03:30:39.315Z,7.90
2022-12-17T03:34:20.702Z,8.00
2022-12-17T03:38:03.071Z,8.00
2022-12-17T03:41:44.340Z,6.57
2022-12-17T03:45:26.181Z,6.77
2022-12-17T03:49:07.010Z,6.80
2022-12-17T03:52:48.076Z,7.40
2022-12-17T03:56:42.379Z,7.30
2022-12-17T04:00:24.622Z,6.80
2022-12-17T04:04:05.945Z,7.53
2022-12-17T04:07:47.205Z,6.93
2022-12-17T04:11:29.571Z,7.60
2022-12-17T04:15:10.731Z,7.70
2022-12-17T04:18:52.056Z,7.37
2022-12-17T04:22:32.917Z,8.23
2022-12-17T04:26:13.742Z,8.70
2022-12-17T04:29:56.023Z,9.07
2022-12-17T04:33:37.381Z,10.30
2022-12-17T04:37:18.875Z,9.77
2022-12-17T04:40:59.833Z,10.17
2022-12-17T04:44:40.884Z,8.77
2022-12-17T04:48:26.499Z,9.10
2022-12-17T04:52:07.660Z,9.93
2022-12-17T04:55:48.587Z,10.63
2022-12-17T04:59:29.792Z,10.60
2022-12-17T05:03:11.051Z,9.10
2022-12-17T05:06:53.342Z,11.40
2022-12-17T05:10:34.543Z,11.40
2022-12-17T05:14:23.763Z,10.27
2022-12-17T05:18:04.748Z,10.80
2022-12-17T05:21:45.675Z,10.73
2022-12-17T05:25:28.374Z,9.90
2022-12-17T05:29:15.416Z,10.17
2022-12-17T05:32:57.042Z,10.03
2022-12-17T05:36:37.956Z,10.57
2022-12-17T05:40:19.199Z,10.87
2022-12-17T05:44:01.744Z,9.27
2022-12-17T05:47:42.863Z,9.30
2022-12-17T05:51:24.277Z,10.87
2022-12-17T05:55:05.386Z,8.97
2022-12-17T05:58:46.558Z,9.20
2022-12-17T06:02:29.240Z,9.53
2022-12-17T06:06:13.471Z,9.20
2022-12-17T06:09:54.686Z,8.73
2022-12-17T06:13:36.073Z,8.80
2022-12-17T06:17:17.389Z,8.50
2022-12-17T06:20:59.952Z,8.47
2022-12-17T06:24:45.697Z,8.10
2022-12-17T06:28:28.111Z,9.33
2022-12-17T06:32:09.321Z,9.07
2022-12-17T06:35:50.744Z,9.93
2022-12-17T06:39:33.059Z,9.10
2022-12-17T06:43:15.197Z,9.60
2022-12-17T06:46:56.151Z,9.53
2022-12-17T06:50:37.303Z,9.10
2022-12-17T06:54:29.956Z,8.40
2022-12-17T06:58:16.091Z,8.43
2022-12-17T07:01:57.195Z,7.90
2022-12-17T07:05:38.455Z,8.00
2022-12-17T07:09:19.798Z,8.80
2022-12-17T07:13:01.334Z,8.47
2022-12-17T07:16:52.707Z,8.57
2022-12-17T07:20:34.280Z,8.67
2022-12-17T07:24:15.530Z,8.07
2022-12-17T07:27:56.947Z,8.20
2022-12-17T07:31:38.241Z,8.77
2022-12-17T07:35:20.638Z,7.60
2022-12-17T07:39:02.092Z,7.63
2022-12-17T07:42:43.406Z,9.23
2022-12-17T07:46:24.735Z,7.90
2022-12-17T07:50:05.705Z,8.50
2022-12-17T07:53:48.029Z,8.03
2022-12-17T07:57:29.247Z,8.63
2022-12-17T08:01:10.341Z,7.80
2022-12-17T08:04:51.488Z,7.97
2022-12-17T08:08:33.763Z,7.00
2022-12-17T08:12:16.148Z,9.87
2022-12-17T08:15:57.254Z,9.00
2022-12-17T08:19:38.342Z,8.83
2022-12-17T08:23:20.728Z,8.07
2022-12-17T08:27:01.680Z,8.67
2022-12-17T08:30:44.348Z,8.53
2022-12-17T08:34:25.923Z,9.33
2022-12-17T08:38:07.051Z,9.20
2022-12-17T08:41:54.012Z,9.37
2022-12-17T08:45:36.265Z,9.63
2022-12-17T08:49:18.598Z,7.70
2022-12-17T08:52:59.976Z,8.47
2022-12-17T08:56:41.375Z,8.90
2022-12-17T09:00:23.747Z,9.90
2022-12-17T09:04:05.529Z,10.17
2022-12-17T09:07:47.810Z,10.63
2022-12-17T09:11:43.304Z,10.70
2022-12-17T09:15:25.278Z,10.87
2022-12-17T09:19:07.781Z,9.60
2022-12-17T09:22:50.556Z,11.17
2022-12-17T09:26:31.523Z,10.60
2022-12-17T09:30:12.632Z,10.80
2022-12-17T09:33:53.811Z,11.10
2022-12-17T09:37:34.672Z,10.80
2022-12-17T09:41:31.297Z,9.53
2022-12-17T09:45:22.802Z,10.40
2022-12-17T09:49:19.278Z,10.67
2022-12-17T09:53:02.447Z,11.20
2022-12-17T09:56:49.783Z,11.90
2022-12-17T10:00:35.539Z,11.77
2022-12-17T10:04:17.381Z,12.13
2022-12-17T10:07:58.870Z,13.40
2022-12-17T10:11:47.143Z,14.07
2022-12-17T10:15:29.659Z,14.40
2022-12-17T10:19:10.574Z,13.20
2022-12-17T10:23:02.152Z,14.27
2022-12-17T10:26:48.851Z,13.30
2022-12-17T10:30:35.281Z,13.43
2022-12-17T10:34:16.612Z,14.63
2022-12-17T10:37:58.043Z,14.47
2022-12-17T10:41:43.052Z,15.40
2022-12-17T10:45:42.329Z,16.00
2022-12-17T10:49:30.221Z,14.57
2022-12-17T10:53:11.331Z,14.37
2022-12-17T10:57:07.182Z,15.40
2022-12-17T11:00:53.243Z,15.57
2022-12-17T11:04:47.320Z,15.13
2022-12-17T11:08:32.379Z,15.10
2022-12-17T11:12:13.640Z,15.60
2022-12-17T11:16:04.006Z,15.60
2022-12-17T11:19:55.000Z,15.37
2022-12-17T11:23:39.338Z,12.77
2022-12-17T11:27:26.499Z,14.40
2022-12-17T11:31:21.434Z,15.97
2022-12-17T11:35:20.812Z,13.80
2022-12-17T11:39:12.001Z,13.47
2022-12-17T11:43:03.013Z,16.37
2022-12-17T11:47:05.551Z,16.13
2022-12-17T11:50:59.401Z,15.27
2022-12-17T11:54:51.715Z,16.10
2022-12-17T11:58:46.589Z,17.00
2022-12-17T12:02:54.612Z,16.40
2022-12-17T12:06:47.641Z,16.77
2022-12-17T12:10:40.265Z,18.03
2022-12-17T12:14:37.301Z,15.90
2022-12-17T12:18:26.760Z,16.70
2022-12-17T12:22:17.622Z,15.40
2022-12-17T12:26:16.804Z,15.50
2022-12-17T12:30:07.501Z,16.13
2022-12-17T12:34:09.039Z,16.97
2022-12-17T12:37:51.191Z,13.87
2022-12-17T12:41:42.714Z,15.20
2022-12-17T12:45:39.415Z,13.77
2022-12-17T12:49:36.763Z,14.00
2022-12-17T12:53:18.556Z,13.17
2022-12-17T12:56:59.758Z,13.53
2022-12-17T13:00:52.242Z,13.07
2022-12-17T13:04:54.166Z,13.20
2022-12-17T13:08:23.276Z,13.77
2022-12-17T13:11:49.755Z,13.47
2022-12-17T13:15:33.391Z,12.93
2022-12-17T13:19:06.346Z,12.60
2022-12-17T13:22:34.560Z,12.03
2022-12-17T13:26:23.113Z,13.00
2022-12-17T13:29:46.649Z,13.60
2022-12-17T13:33:25.993Z,16.20
2022-12-17T13:37:02.727Z,13.33
2022-12-17T13:40:43.604Z,14.37
2022-12-17T13:44:22.962Z,12.77
2022-12-17T13:47:55.868Z,12.70
2022-12-17T13:51:22.235Z,12.30
2022-12-17T13:54:46.102Z,12.80
2022-12-17T13:58:24.360Z,13.67
2022-12-17T14:01:50.387Z,12.27
2022-12-17T14:05:27.019Z,11.50
2022-12-17T14:08:54.852Z,12.97
2022-12-17T14:12:25.655Z,13.37
2022-12-17T14:15:52.851Z,12.87
2022-12-17T14:19:16.883Z,12.90
2022-12-17T14:22:51.306Z,12.40
2022-12-17T14:26:15.718Z,15.07
2022-12-17T14:29:47.865Z,12.93
2022-12-17T14:33:29.646Z,15.27
2022-12-17T14:36:59.637Z,13.63
2022-12-17T14:40:26.272Z,13.80
2022-12-17T14:43:58.487Z,11.87
2022-12-17T14:47:25.650Z,10.93
2022-12-17T14:50:56.778Z,11.17
2022-12-17T14:54:30.848Z,11.40
2022-12-17T14:58:07.552Z,12.60
2022-12-17T15:01:31.290Z,12.33
2022-12-17T15:05:01.935Z,11.23
2022-12-17T15:08:28.503Z,12.33
2022-12-17T15:11:52.962Z,11.60
2022-12-17T15:15:17.527Z,10.93
2022-12-17T15:18:41.255Z,11.70
2022-12-17T15:22:05.492Z,11.60
2022-12-17T15:25:30.631Z,12.50
2022-12-17T15:28:54.229Z,11.50
2022-12-17T15:32:21.578Z,11.90
2022-12-17T15:35:45.263Z,15.90
2022-12-17T15:39:09.532Z,25.25
2022-12-17T15:42:52.111Z,23.40
2022-12-17T15:46:15.594Z,17.53
2022-12-17T15:49:39.053Z,16.50
2022-12-17T15:53:02.672Z,14.17
2022-12-17T15:56:28.412Z,12.67
2022-12-17T15:59:53.719Z,10.43
2022-12-17T16:03:17.308Z,12.07
2022-12-17T16:06:40.923Z,12.50
2022-12-17T16:10:05.687Z,10.93
2022-12-17T16:13:29.330Z,10.97
2022-12-17T16:16:54.259Z,11.23
2022-12-17T16:20:17.936Z,11.20
2022-12-17T16:23:41.349Z,11.40
2022-12-17T16:27:05.381Z,10.00
2022-12-17T16:30:28.855Z,12.07
2022-12-17T16:33:53.666Z,10.93
2022-12-17T16:37:17.222Z,12.07
2022-12-17T16:40:40.718Z,11.53
2022-12-17T16:44:05.781Z,9.93
2022-12-17T16:47:29.346Z,11.57
2022-12-17T16:50:54.269Z,12.03
2022-12-17T16:54:21.673Z,12.37
2022-12-17T16:57:53.023Z,11.90
2022-12-17T17:01:21.311Z,11.93
2022-12-17T17:04:44.888Z,12.20
2022-12-17T17:08:08.725Z,11.20
2022-12-17T17:11:32.841Z,11.23
2022-12-17T17:14:57.689Z,11.20
2022-12-17T17:18:24.666Z,12.67
2022-12-17T17:21:54.140Z,12.00
2022-12-17T17:25:17.849Z,10.87
2022-12-17T17:28:41.978Z,10.53
2022-12-17T17:32:11.389Z,10.93
2022-12-17T17:35:36.377Z,11.30
2022-12-17T17:39:02.461Z,11.53
2022-12-17T17:42:25.824Z,10.87
2022-12-17T17:45:49.222Z,11.17
2022-12-17T17:49:14.153Z,11.37
2022-12-17T17:52:37.674Z,10.67
2022-12-17T17:56:05.974Z,10.20
2022-12-17T17:59:33.694Z,9.23
2022-12-17T18:02:58.099Z,11.50
2022-12-17T18:06:23.704Z,11.70
2022-12-17T18:09:47.466Z,9.77
2022-12-17T18:13:28.371Z,10.47
2022-12-17T18:16:51.722Z,9.90
2022-12-17T18:20:15.782Z,9.93
2022-12-17T18:23:40.919Z,10.77
2022-12-17T18:27:04.298Z,10.50
2022-12-17T18:30:27.774Z,10.70
2022-12-17T18:33:54.430Z,9.73
2022-12-17T18:37:18.128Z,10.00
2022-12-17T18:40:42.915Z,8.47
2022-12-17T18:44:07.811Z,10.27
2022-12-17T18:47:31.336Z,10.70
2022-12-17T18:50:55.401Z,9.90
2022-12-17T18:54:23.559Z,11.10
2022-12-17T18:57:48.443Z,12.57
2022-12-17T19:01:21.262Z,12.67
2022-12-17T19:04:45.649Z,10.50
2022-12-17T19:08:09.161Z,11.27
2022-12-17T19:11:32.857Z,10.47
2022-12-17T19:14:57.749Z,9.40
2022-12-17T19:18:21.134Z,8.43
2022-12-17T19:21:44.652Z,9.27
2022-12-17T19:25:08.735Z,9.70
2022-12-17T19:28:32.314Z,9.23
2022-12-17T19:31:57.207Z,10.80
2022-12-17T19:35:20.770Z,7.90
2022-12-17T19:38:45.397Z,8.57
2022-12-17T19:42:24.428Z,10.37
2022-12-17T19:45:48.340Z,9.77
2022-12-17T19:49:16.115Z,8.87
2022-12-17T19:52:39.610Z,9.90
2022-12-17T19:56:13.041Z,11.47
2022-12-17T19:59:36.510Z,9.20
2022-12-17T20:03:00.062Z,8.77
2022-12-17T20:06:27.716Z,10.00
2022-12-17T20:09:51.253Z,9.20
2022-12-17T20:13:14.824Z,10.40
2022-12-17T20:16:41.544Z,11.63
2022-12-17T20:20:05.839Z,13.57
2022-12-17T20:23:31.108Z,11.50
2022-12-17T20:26:55.764Z,12.80
2022-12-17T20:30:19.552Z,10.27
2022-12-17T20:33:43.525Z,9.87
2022-12-17T20:37:07.075Z,10.77
2022-12-17T20:40:32.303Z,11.10
2022-12-17T20:43:56.810Z,11.17
2022-12-17T20:47:20.257Z,9.43
2022-12-17T20:50:43.732Z,11.30
2022-12-17T20:54:08.310Z,13.00
2022-12-17T20:57:33.102Z,10.67
2022-12-17T21:01:05.416Z,9.70
2022-12-17T21:04:29.223Z,13.37
2022-12-17T21:07:52.694Z,12.50
2022-12-17T21:11:17.115Z,10.10
2022-12-17T21:14:41.898Z,9.67
2022-12-17T21:18:05.617Z,9.23
2022-12-17T21:21:33.321Z,9.60
2022-12-17T21:24:56.811Z,9.47
2022-12-17T21:28:26.141Z,10.07
2022-12-17T21:31:53.970Z,10.73
2022-12-17T21:35:17.821Z,9.40
2022-12-17T21:38:42.597Z,12.50
2022-12-17T21:42:23.807Z,11.17
2022-12-17T21:45:47.828Z,10.77
2022-12-17T21:49:12.746Z,8.57
2022-12-17T21:52:36.498Z,7.90
2022-12-17T21:56:04.309Z,8.37
2022-12-17T21:59:27.949Z,7.50
2022-12-17T22:02:51.579Z,9.70
2022-12-17T22:06:19.184Z,11.07
2022-12-17T22:09:54.746Z,11.73
2022-12-17T22:13:45.011Z,10.17
2022-12-17T22:17:08.415Z,8.27
2022-12-17T22:20:31.783Z,10.47
2022-12-17T22:23:56.506Z,11.40
2022-12-17T22:27:20.595Z,9.33
2022-12-17T22:31:01.725Z,8.07
2022-12-17T22:35:58.020Z,9.40
2022-12-17T22:42:11.705Z,8.37
2022-12-17T22:44:38.631Z,8.17
2022-12-17T22:46:01.350Z,6.57
2022-12-17T22:49:25.470Z,7.20
2022-12-17T22:52:48.935Z,5.60
2022-12-17T22:56:18.706Z,6.93
2022-12-17T22:59:56.123Z,6.60
2022-12-17T23:03:19.671Z,6.33
2022-12-17T23:06:45.233Z,6.10
2022-12-17T23:10:09.668Z,8.00
2022-12-17T23:13:33.244Z,9.17
2022-12-17T23:16:57.947Z,6.90
2022-12-17T23:20:21.879Z,6.27
2022-12-17T23:23:45.878Z,7.50
2022-12-17T23:27:09.256Z,8.70
2022-12-17T23:30:32.743Z,8.37
2022-12-17T23:33:57.713Z,9.20
2022-12-17T23:37:21.204Z,8.87
2022-12-17T23:40:44.605Z,7.97
2022-12-17T23:44:08.094Z,7.57
2022-12-17T23:47:32.834Z,8.27
2022-12-17T23:50:57.630Z,6.90
2022-12-17T23:54:21.212Z,7.77
2022-12-17T23:57:44.652Z,7.80
